createdAt,value
2022-12-15T00:02:27.799Z,99534.63
2022-12-15T00:05:13.007Z,99544.03
2022-12-15T00:07:59.494Z,99538.22
2022-12-15T00:10:44.974Z,99543.66
2022-12-15T00:13:31.566Z,99554.78
2022-12-15T00:16:17.691Z,99551.13
2022-12-15T00:19:03.477Z,99553.75
2022-12-15T00:21:48.804Z,99556.56
2022-12-15T00:24:35.437Z,99551.75
2022-12-15T00:27:20.764Z,99548.94
2022-12-15T00:30:06.216Z,99544.00
2022-12-15T00:32:51.648Z,99547.00
2022-12-15T00:35:37.064Z,99550.50
2022-12-15T00:38:26.453Z,99558.72
2022-12-15T00:40:59.378Z,99562.88
2022-12-15T00:43:27.835Z,99571.41
2022-12-15T00:46:13.804Z,99576.84
2022-12-15T00:48:42.097Z,99592.81
2022-12-15T00:51:08.912Z,99598.53
2022-12-15T00:53:54.789Z,99598.66
2022-12-15T00:56:41.401Z,99601.38
2022-12-15T00:59:26.986Z,99585.22
2022-12-15T01:02:12.307Z,99576.78
2022-12-15T01:04:57.595Z,99571.31
2022-12-15T01:07:42.797Z,99579.66
2022-12-15T01:10:28.177Z,99586.69
2022-12-15T01:13:14.965Z,99590.59
2022-12-15T01:16:00.177Z,99590.41
2022-12-15T01:18:49.555Z,99596.28
2022-12-15T01:21:17.547Z,99599.13
2022-12-15T01:23:45.267Z,99606.94
2022-12-15T01:26:13.228Z,99618.72
2022-12-15T01:28:42.311Z,99625.28
2022-12-15T01:31:13.699Z,99623.84
2022-12-15T01:33:42.644Z,99624.28
2022-12-15T01:36:11.450Z,99629.91
2022-12-15T01:38:39.260Z,99637.22
2022-12-15T01:41:09.520Z,99634.63
2022-12-15T01:43:39.448Z,99629.50
2022-12-15T01:46:10.271Z,99628.88
2022-12-15T01:48:43.120Z,99630.53
2022-12-15T01:51:16.815Z,99630.34
2022-12-15T01:53:50.122Z,99630.28
2022-12-15T01:56:18.794Z,99636.94
2022-12-15T01:58:49.772Z,99634.31
2022-12-15T02:01:19.479Z,99639.66
2022-12-15T02:03:48.268Z,99637.38
2022-12-15T02:06:17.210Z,99645.88
2022-12-15T02:08:47.459Z,99641.06
2022-12-15T02:11:32.728Z,99644.81
2022-12-15T02:14:03.577Z,99647.22
2022-12-15T02:16:46.077Z,99644.22
2022-12-15T02:19:40.453Z,99643.47
2022-12-15T02:22:20.351Z,99647.34
2022-12-15T02:25:08.987Z,99646.00
2022-12-15T02:27:57.647Z,99649.63
2022-12-15T02:31:08.195Z,99638.81
2022-12-15T02:33:39.109Z,99631.81
2022-12-15T02:36:16.327Z,99635.75
2022-12-15T02:38:44.978Z,99640.66
2022-12-15T02:41:36.364Z,99636.63
2022-12-15T02:44:11.261Z,99639.53
2022-12-15T02:46:52.372Z,99644.63
2022-12-15T02:49:31.224Z,99644.41
2022-12-15T02:52:10.933Z,99645.72
2022-12-15T02:55:02.305Z,99645.13
2022-12-15T02:57:37.583Z,99656.84
2022-12-15T03:00:09.693Z,99658.84
2022-12-15T03:02:42.503Z,99674.38
2022-12-15T03:05:10.967Z,99670.56
2022-12-15T03:07:38.870Z,99677.28
2022-12-15T03:10:08.247Z,99674.06
2022-12-15T03:12:35.938Z,99673.44
2022-12-15T03:15:03.609Z,99670.72
2022-12-15T03:17:31.310Z,99677.50
2022-12-15T03:20:00.533Z,99674.78
2022-12-15T03:22:28.225Z,99672.56
2022-12-15T03:24:55.960Z,99680.81
2022-12-15T03:27:23.678Z,99684.75
2022-12-15T03:29:51.335Z,99699.34
2022-12-15T03:32:19.116Z,99699.47
2022-12-15T03:34:46.875Z,99706.31
2022-12-15T03:37:15.883Z,99699.13
2022-12-15T03:39:43.561Z,99705.47
2022-12-15T03:42:11.385Z,99708.59
2022-12-15T03:44:39.077Z,99715.25
2022-12-15T03:47:07.003Z,99722.53
2022-12-15T03:49:34.683Z,99720.72
2022-12-15T03:52:02.350Z,99724.38
2022-12-15T03:54:31.428Z,99724.03
2022-12-15T03:56:59.783Z,99714.81
2022-12-15T03:59:27.437Z,99713.03
2022-12-15T04:01:55.195Z,99717.31
2022-12-15T04:04:22.903Z,99711.19
2022-12-15T04:06:52.265Z,99725.31
2022-12-15T04:09:20.324Z,99728.31
2022-12-15T04:11:49.336Z,99728.50
2022-12-15T04:14:16.965Z,99731.22
2022-12-15T04:16:44.740Z,99733.53
2022-12-15T04:19:29.868Z,99728.13
2022-12-15T04:21:58.093Z,99736.47
2022-12-15T04:24:43.400Z,99737.31
2022-12-15T04:27:30.041Z,99735.72
2022-12-15T04:30:15.339Z,99729.81
2022-12-15T04:33:00.836Z,99732.41
2022-12-15T04:35:46.219Z,99730.97
2022-12-15T04:38:35.273Z,99739.69
2022-12-15T04:41:20.663Z,99746.59
2022-12-15T04:44:07.199Z,99727.97
2022-12-15T04:46:52.644Z,99730.03
2022-12-15T04:49:38.140Z,99729.81
2022-12-15T04:52:23.450Z,99727.88
2022-12-15T04:55:08.928Z,99739.31
2022-12-15T04:57:54.361Z,99740.97
2022-12-15T05:00:41.296Z,99733.44
2022-12-15T05:03:27.238Z,99737.25
2022-12-15T05:06:12.501Z,99734.28
2022-12-15T05:08:57.974Z,99739.19
2022-12-15T05:11:43.285Z,99743.38
2022-12-15T05:14:28.603Z,99745.97
2022-12-15T05:17:15.392Z,99731.00
2022-12-15T05:20:00.769Z,99748.31
2022-12-15T05:22:46.256Z,99742.44
2022-12-15T05:25:31.489Z,99744.88
2022-12-15T05:28:16.950Z,99737.81
2022-12-15T05:31:02.387Z,99736.66
2022-12-15T05:33:31.777Z,99746.31
2022-12-15T05:35:59.686Z,99752.63
2022-12-15T05:38:27.394Z,99760.84
2022-12-15T05:40:58.375Z,99770.56
2022-12-15T05:43:26.724Z,99765.59
2022-12-15T05:45:54.591Z,99767.72
2022-12-15T05:48:22.391Z,99768.22
2022-12-15T05:50:51.580Z,99781.28
2022-12-15T05:53:19.207Z,99779.97
2022-12-15T05:55:46.941Z,99776.88
2022-12-15T05:58:14.603Z,99784.19
2022-12-15T06:00:42.305Z,99803.50
2022-12-15T06:03:10.180Z,99801.38
2022-12-15T06:05:38.409Z,99803.09
2022-12-15T06:08:07.587Z,99802.75
2022-12-15T06:10:35.268Z,99809.25
2022-12-15T06:13:02.967Z,99815.81
2022-12-15T06:15:30.672Z,99810.53
2022-12-15T06:17:58.406Z,99801.06
2022-12-15T06:20:26.070Z,99796.66
2022-12-15T06:22:53.680Z,99807.97
2022-12-15T06:25:22.839Z,99811.63
2022-12-15T06:27:50.527Z,99801.06
2022-12-15T06:30:19.092Z,99807.00
2022-12-15T06:32:46.804Z,99802.53
2022-12-15T06:35:17.655Z,99804.78
2022-12-15T06:37:45.291Z,99800.34
2022-12-15T06:40:13.092Z,99801.72
2022-12-15T06:42:42.103Z,99794.56
2022-12-15T06:45:10.696Z,99791.75
2022-12-15T06:47:38.433Z,99799.94
2022-12-15T06:50:07.840Z,99807.38
2022-12-15T06:52:35.567Z,99812.41
2022-12-15T06:55:03.343Z,99805.78
2022-12-15T06:57:31.115Z,99800.88
2022-12-15T07:00:00.493Z,99813.97
2022-12-15T07:02:30.167Z,99816.50
2022-12-15T07:04:57.918Z,99826.69
2022-12-15T07:07:25.893Z,99824.22
2022-12-15T07:09:53.566Z,99832.03
2022-12-15T07:12:21.243Z,99835.56
2022-12-15T07:14:53.423Z,99836.56
2022-12-15T07:17:23.247Z,99837.31
2022-12-15T07:19:50.972Z,99834.34
2022-12-15T07:22:18.612Z,99836.75
2022-12-15T07:24:46.412Z,99834.91
2022-12-15T07:27:14.258Z,99835.47
2022-12-15T07:29:42.144Z,99833.69
2022-12-15T07:32:09.803Z,99827.81
2022-12-15T07:34:38.774Z,99826.84
2022-12-15T07:37:06.565Z,99828.34
2022-12-15T07:39:34.327Z,99831.28
2022-12-15T07:42:01.971Z,99824.59
2022-12-15T07:44:30.023Z,99829.53
2022-12-15T07:46:57.710Z,99828.44
2022-12-15T07:49:25.400Z,99829.06
2022-12-15T07:51:58.346Z,99838.38
2022-12-15T07:54:26.014Z,99839.88
2022-12-15T07:56:53.654Z,99844.34
2022-12-15T07:59:21.354Z,99843.66
2022-12-15T08:01:49.512Z,99842.13
2022-12-15T08:04:17.466Z,99840.28
2022-12-15T08:06:45.638Z,99847.09
2022-12-15T08:09:14.925Z,99843.66
2022-12-15T08:11:43.109Z,99838.63
2022-12-15T08:14:16.966Z,99851.00
2022-12-15T08:16:45.789Z,99851.91
2022-12-15T08:19:15.569Z,99856.13
2022-12-15T08:21:45.472Z,99849.16
2022-12-15T08:24:15.769Z,99852.00
2022-12-15T08:26:50.497Z,99868.59
2022-12-15T08:29:49.562Z,99861.31
2022-12-15T08:32:06.696Z,99858.06
2022-12-15T08:34:34.495Z,99868.56
2022-12-15T08:37:02.287Z,99879.66
2022-12-15T08:39:31.462Z,99890.63
2022-12-15T08:41:59.107Z,99898.25
2022-12-15T08:44:28.027Z,99897.97
2022-12-15T08:46:55.665Z,99902.19
2022-12-15T08:49:23.521Z,99916.31
2022-12-15T08:51:52.227Z,99905.78
2022-12-15T08:54:21.377Z,99903.19
2022-12-15T08:56:50.576Z,99909.16
2022-12-15T08:59:19.234Z,99915.56
2022-12-15T09:01:47.354Z,99915.66
2022-12-15T09:04:15.643Z,99920.28
2022-12-15T09:06:43.739Z,99931.13
2022-12-15T09:09:14.665Z,99931.47
2022-12-15T09:11:42.474Z,99935.66
2022-12-15T09:14:11.713Z,99942.34
2022-12-15T09:16:39.662Z,99949.56
2022-12-15T09:19:08.220Z,99950.94
2022-12-15T09:21:36.319Z,99952.13
2022-12-15T09:24:05.069Z,99954.53
2022-12-15T09:26:34.864Z,99954.22
2022-12-15T09:29:03.067Z,99951.22
2022-12-15T09:31:34.493Z,99934.34
2022-12-15T09:34:02.719Z,99927.09
2022-12-15T09:36:32.730Z,99930.53
2022-12-15T09:39:02.846Z,99926.72
2022-12-15T09:41:33.095Z,99938.44
2022-12-15T09:44:03.654Z,99933.41
2022-12-15T09:46:50.085Z,99939.03
2022-12-15T09:49:30.575Z,99944.56
2022-12-15T09:52:08.818Z,99962.03
2022-12-15T09:54:39.041Z,99961.09
2022-12-15T09:57:14.374Z,99955.31
2022-12-15T09:59:56.639Z,99957.00
2022-12-15T10:02:58.240Z,99957.09
2022-12-15T10:08:30.375Z,99954.72
2022-12-15T10:11:00.847Z,99953.91
2022-12-15T10:13:41.212Z,99953.06
2022-12-15T10:16:19.796Z,99935.53
2022-12-15T10:19:01.405Z,99928.13
2022-12-15T10:21:46.259Z,99928.44
2022-12-15T10:24:44.575Z,99933.19
2022-12-15T10:27:33.306Z,99926.00
2022-12-15T10:30:04.515Z,99918.69
2022-12-15T10:32:50.371Z,99918.97
2022-12-15T10:35:35.966Z,99908.56
2022-12-15T10:38:06.205Z,99909.09
2022-12-15T10:40:51.246Z,99911.03
2022-12-15T10:43:29.236Z,99911.44
2022-12-15T10:46:13.508Z,99906.41
2022-12-15T10:48:42.040Z,99898.41
2022-12-15T10:51:20.427Z,99912.69
2022-12-15T10:53:50.609Z,99912.69
2022-12-15T10:56:28.823Z,99911.59
2022-12-15T10:59:03.604Z,99896.38
2022-12-15T11:01:33.480Z,99893.53
2022-12-15T11:04:02.612Z,99896.16
2022-12-15T11:06:34.463Z,99898.16
2022-12-15T11:09:21.678Z,99876.63
2022-12-15T11:12:11.948Z,99882.69
2022-12-15T11:14:46.164Z,99886.25
2022-12-15T11:17:17.824Z,99887.94
2022-12-15T11:19:54.002Z,99885.16
2022-12-15T11:22:37.067Z,99881.94
2022-12-15T11:25:10.903Z,99885.72
2022-12-15T11:27:43.508Z,99874.50
2022-12-15T11:30:15.177Z,99874.00
2022-12-15T11:32:45.645Z,99866.91
2022-12-15T11:35:20.600Z,99868.13
2022-12-15T11:37:52.997Z,99867.94
2022-12-15T11:40:31.862Z,99859.75
2022-12-15T11:43:18.578Z,99854.25
2022-12-15T11:45:55.363Z,99844.22
2022-12-15T11:48:27.850Z,99842.03
2022-12-15T11:51:00.838Z,99840.78
2022-12-15T11:53:57.858Z,99833.72
2022-12-15T11:56:32.226Z,99835.38
2022-12-15T11:59:20.270Z,99839.13
2022-12-15T12:02:05.178Z,99836.66
2022-12-15T12:04:44.090Z,99834.31
2022-12-15T12:07:23.475Z,99839.13
2022-12-15T12:10:06.168Z,99845.28
2022-12-15T12:12:41.282Z,99823.06
2022-12-15T12:15:27.780Z,99810.13
2022-12-15T12:18:02.613Z,99808.63
2022-12-15T12:20:42.182Z,99792.28
2022-12-15T12:23:17.935Z,99784.53
2022-12-15T12:26:02.630Z,99774.56
2022-12-15T12:28:40.851Z,99765.28
2022-12-15T12:31:21.406Z,99772.72
2022-12-15T12:33:53.003Z,99770.38
2022-12-15T12:36:20.732Z,99776.53
2022-12-15T12:38:51.199Z,99774.38
2022-12-15T12:41:31.719Z,99780.53
2022-12-15T12:44:03.169Z,99764.97
2022-12-15T12:46:34.603Z,99765.69
2022-12-15T12:49:07.016Z,99766.00
2022-12-15T12:51:36.210Z,99767.19
2022-12-15T12:54:11.778Z,99761.53
2022-12-15T12:56:44.001Z,99750.09
2022-12-15T12:59:39.036Z,99747.00
2022-12-15T13:02:42.058Z,99747.63
2022-12-15T13:05:25.439Z,99741.16
2022-12-15T13:07:56.242Z,99728.09
2022-12-15T13:10:25.731Z,99720.25
2022-12-15T13:12:55.871Z,99711.47
2022-12-15T13:15:38.199Z,99711.91
2022-12-15T13:18:16.205Z,99711.53
2022-12-15T13:20:45.368Z,99717.56
2022-12-15T13:23:37.491Z,99707.22
2022-12-15T13:26:16.036Z,99708.06
2022-12-15T13:28:52.014Z,99707.53
2022-12-15T13:31:34.763Z,99712.22
2022-12-15T13:34:13.941Z,99719.59
2022-12-15T13:37:00.231Z,99715.47
2022-12-15T13:39:59.519Z,99698.72
2022-12-15T13:42:51.263Z,99695.59
2022-12-15T13:45:50.219Z,99687.56
2022-12-15T13:48:41.158Z,99688.25
2022-12-15T13:51:25.501Z,99690.47
2022-12-15T13:53:58.528Z,99689.06
2022-12-15T13:56:42.780Z,99698.44
2022-12-15T13:59:20.358Z,99706.06
2022-12-15T14:01:53.862Z,99705.13
2022-12-15T14:04:22.860Z,99701.94
2022-12-15T14:06:53.849Z,99697.56
2022-12-15T14:09:26.894Z,99696.94
2022-12-15T14:11:55.041Z,99701.44
2022-12-15T14:14:27.695Z,99693.72
2022-12-15T14:17:04.723Z,99698.44
2022-12-15T14:19:39.874Z,99698.78
2022-12-15T14:22:25.178Z,99701.69
2022-12-15T14:25:08.741Z,99698.66
2022-12-15T14:27:36.497Z,99703.16
2022-12-15T14:30:22.247Z,99703.25
2022-12-15T14:32:56.368Z,99705.59
2022-12-15T14:35:30.852Z,99707.81
2022-12-15T14:38:02.024Z,99711.06
2022-12-15T14:40:30.851Z,99704.59
2022-12-15T14:42:59.053Z,99710.97
2022-12-15T14:45:29.440Z,99709.66
2022-12-15T14:50:51.240Z,99704.00
2022-12-15T14:53:22.011Z,99697.31
2022-12-15T14:55:49.829Z,99692.09
2022-12-15T14:58:33.201Z,99709.22
2022-12-15T15:01:01.926Z,99712.28
2022-12-15T15:03:03.660Z,99958.19
2022-12-15T15:03:40.844Z,99716.22
2022-12-15T15:06:18.789Z,99716.88
2022-12-15T15:08:49.281Z,99713.53
2022-12-15T15:11:29.336Z,99716.13
2022-12-15T15:13:59.607Z,99718.22
2022-12-15T15:16:27.535Z,99720.94
2022-12-15T15:18:57.760Z,99718.41
2022-12-15T15:21:28.176Z,99723.44
2022-12-15T15:24:00.304Z,99719.38
2022-12-15T15:26:28.757Z,99727.19
2022-12-15T15:28:56.735Z,99725.94
2022-12-15T15:31:35.245Z,99717.38
2022-12-15T15:34:09.311Z,99720.91
2022-12-15T15:36:39.380Z,99725.09
2022-12-15T15:39:13.599Z,99734.69
2022-12-15T15:41:41.397Z,99732.06
2022-12-15T15:44:14.478Z,99725.09
2022-12-15T15:46:47.324Z,99733.03
2022-12-15T15:49:19.499Z,99733.75
2022-12-15T15:51:47.263Z,99739.88
2022-12-15T15:54:17.506Z,99726.31
2022-12-15T15:56:45.261Z,99721.63
2022-12-15T15:59:16.373Z,99716.09
2022-12-15T16:01:44.288Z,99722.94
2022-12-15T16:04:12.281Z,99713.53
2022-12-15T16:06:47.006Z,99716.47
2022-12-15T16:09:17.037Z,99710.59
2022-12-15T16:11:46.179Z,99709.63
2022-12-15T16:14:15.586Z,99712.09
2022-12-15T16:16:43.860Z,99711.78
2022-12-15T16:19:12.086Z,99720.66
2022-12-15T16:21:41.923Z,99714.84
2022-12-15T16:24:12.390Z,99713.16
2022-12-15T16:26:47.158Z,99719.00
2022-12-15T16:29:17.372Z,99717.63
2022-12-15T16:31:45.995Z,99719.50
2022-12-15T16:34:14.167Z,99722.53
2022-12-15T16:36:43.775Z,99723.91
2022-12-15T16:39:24.706Z,99717.78
2022-12-15T16:41:53.962Z,99715.88
2022-12-15T16:44:22.257Z,99716.31
2022-12-15T16:46:50.009Z,99727.69
2022-12-15T16:49:18.138Z,99717.69
2022-12-15T16:51:49.074Z,99730.09
2022-12-15T16:54:20.829Z,99735.84
2022-12-15T16:56:48.783Z,99736.03
2022-12-15T16:59:34.867Z,99737.00
2022-12-15T17:02:04.089Z,99743.28
2022-12-15T17:04:32.003Z,99735.97
2022-12-15T17:07:01.196Z,99737.63
2022-12-15T17:09:29.660Z,99740.03
2022-12-15T17:11:58.958Z,99735.03
2022-12-15T17:14:26.755Z,99733.97
2022-12-15T17:16:54.978Z,99736.03
2022-12-15T17:19:22.894Z,99730.91
2022-12-15T17:21:53.511Z,99727.97
2022-12-15T17:24:23.079Z,99732.06
2022-12-15T17:26:51.448Z,99726.25
2022-12-15T17:29:22.845Z,99720.28
2022-12-15T17:31:50.842Z,99721.00
2022-12-15T17:34:27.016Z,99716.31
2022-12-15T17:36:55.303Z,99713.81
2022-12-15T17:39:24.642Z,99715.28
2022-12-15T17:42:01.560Z,99712.16
2022-12-15T17:44:35.058Z,99711.31
2022-12-15T17:47:09.641Z,99706.81
2022-12-15T17:49:38.829Z,99704.22
2022-12-15T17:52:18.497Z,99706.50
2022-12-15T17:54:47.540Z,99703.06
2022-12-15T17:57:15.170Z,99690.94
2022-12-15T17:59:44.909Z,99682.72
2022-12-15T18:02:16.292Z,99686.25
2022-12-15T18:04:45.036Z,99686.78
2022-12-15T18:07:17.978Z,99682.09
2022-12-15T18:09:47.811Z,99678.94
2022-12-15T18:12:20.130Z,99683.88
2022-12-15T18:14:47.985Z,99671.75
2022-12-15T18:17:15.859Z,99671.03
2022-12-15T18:19:43.503Z,99676.66
2022-12-15T18:22:14.321Z,99683.75
2022-12-15T18:24:42.260Z,99671.63
2022-12-15T18:27:20.294Z,99676.09
2022-12-15T18:29:48.032Z,99671.63
2022-12-15T18:32:16.891Z,99661.94
2022-12-15T18:34:44.715Z,99669.03
2022-12-15T18:37:16.398Z,99653.94
2022-12-15T18:39:45.052Z,99646.63
2022-12-15T18:42:18.211Z,99650.78
2022-12-15T18:44:48.374Z,99655.47
2022-12-15T18:47:18.195Z,99653.56
2022-12-15T18:49:46.270Z,99663.63
2022-12-15T18:52:18.982Z,99648.28
2022-12-15T18:54:47.946Z,99654.53
2022-12-15T18:57:28.700Z,99653.81
2022-12-15T18:59:59.384Z,99654.66
2022-12-15T19:02:27.264Z,99648.50
2022-12-15T19:04:55.414Z,99648.50
2022-12-15T19:07:23.335Z,99650.03
2022-12-15T19:09:51.314Z,99652.88
2022-12-15T19:12:19.335Z,99655.75
2022-12-15T19:14:50.640Z,99644.50
2022-12-15T19:17:38.310Z,99648.03
2022-12-15T19:20:25.043Z,99648.97
2022-12-15T19:22:53.659Z,99644.00
2022-12-15T19:25:26.138Z,99642.00
2022-12-15T19:27:59.152Z,99644.41
2022-12-15T19:30:31.108Z,99636.38
2022-12-15T19:32:58.826Z,99638.91
2022-12-15T19:35:28.355Z,99636.69
2022-12-15T19:37:57.855Z,99634.06
2022-12-15T19:40:29.402Z,99635.44
2022-12-15T19:42:58.240Z,99625.41
2022-12-15T19:45:29.139Z,99620.63
2022-12-15T19:47:56.979Z,99620.94
2022-12-15T19:50:26.450Z,99622.41
2022-12-15T19:52:58.052Z,99610.09
2022-12-15T19:55:28.876Z,99618.97
2022-12-15T19:57:56.566Z,99625.34
2022-12-15T20:00:25.253Z,99631.91
2022-12-15T20:02:56.688Z,99632.66
2022-12-15T20:05:25.946Z,99635.25
2022-12-15T20:07:54.782Z,99634.84
2022-12-15T20:10:31.228Z,99635.69
2022-12-15T20:13:00.444Z,99631.47
2022-12-15T20:15:28.579Z,99646.19
2022-12-15T20:17:57.970Z,99643.81
2022-12-15T20:20:27.920Z,99646.19
2022-12-15T20:22:57.767Z,99638.38
2022-12-15T20:25:28.472Z,99639.31
2022-12-15T20:27:56.622Z,99641.41
2022-12-15T20:30:27.152Z,99637.53
2022-12-15T20:32:55.194Z,99638.91
2022-12-15T20:35:25.232Z,99643.06
2022-12-15T20:37:53.470Z,99645.97
2022-12-15T20:40:24.411Z,99651.09
2022-12-15T20:42:53.308Z,99644.44
2022-12-15T20:45:23.897Z,99647.88
2022-12-15T20:47:54.205Z,99651.09
2022-12-15T20:50:28.945Z,99652.25
2022-12-15T20:52:56.657Z,99652.25
2022-12-15T20:55:24.511Z,99654.72
2022-12-15T20:57:52.208Z,99652.03
2022-12-15T21:00:20.756Z,99650.16
2022-12-15T21:02:49.209Z,99652.66
2022-12-15T21:05:26.671Z,99645.03
2022-12-15T21:07:55.696Z,99654.53
2022-12-15T21:10:23.318Z,99651.72
2022-12-15T21:12:51.801Z,99659.94
2022-12-15T21:15:22.147Z,99654.03
2022-12-15T21:18:29.184Z,99653.50
2022-12-15T21:20:43.904Z,99647.66
2022-12-15T21:23:20.721Z,99648.59
2022-12-15T21:25:48.884Z,99641.91
2022-12-15T21:28:17.170Z,99642.53
2022-12-15T21:30:45.141Z,99637.66
2022-12-15T21:33:13.139Z,99643.47
2022-12-15T21:35:42.790Z,99642.84
2022-12-15T21:38:34.923Z,99642.22
2022-12-15T21:41:05.183Z,99646.81
2022-12-15T21:43:36.392Z,99648.69
2022-12-15T21:46:12.348Z,99653.72
2022-12-15T21:48:57.608Z,99645.97
2022-12-15T21:51:25.839Z,99648.88
2022-12-15T21:53:55.064Z,99653.47
2022-12-15T21:56:22.914Z,99656.19
2022-12-15T21:58:52.617Z,99658.38
2022-12-15T22:01:24.629Z,99666.91
2022-12-15T22:03:54.650Z,99671.50
2022-12-15T22:06:24.399Z,99673.44
2022-12-15T22:08:55.143Z,99675.13
2022-12-15T22:11:24.857Z,99673.25
2022-12-15T22:13:55.163Z,99669.41
2022-12-15T22:16:23.729Z,99672.50
2022-12-15T22:18:53.415Z,99667.56
2022-12-15T22:21:23.297Z,99665.38
2022-12-15T22:23:51.140Z,99672.84
2022-12-15T22:26:24.867Z,99668.91
2022-12-15T22:28:52.719Z,99663.09
2022-12-15T22:31:22.709Z,99662.59
2022-12-15T22:33:50.531Z,99659.06
2022-12-15T22:36:18.477Z,99670.41
2022-12-15T22:38:46.947Z,99672.38
2022-12-15T22:41:19.820Z,99668.41
2022-12-15T22:43:51.582Z,99662.56
2022-12-15T22:46:22.611Z,99664.97
2022-12-15T22:48:52.231Z,99667.91
2022-12-15T22:51:20.814Z,99670.84
2022-12-15T22:53:48.898Z,99664.59
2022-12-15T22:56:23.728Z,99665.84
2022-12-15T22:58:57.214Z,99661.91
2022-12-15T23:01:26.802Z,99666.81
2022-12-15T23:03:55.609Z,99662.09
2022-12-15T23:06:23.788Z,99664.88
2022-12-15T23:08:55.647Z,99666.50
2022-12-15T23:11:39.403Z,99668.06
2022-12-15T23:14:10.435Z,99669.50
2022-12-15T23:16:37.976Z,99667.53
2022-12-15T23:19:08.351Z,99673.06
2022-12-15T23:21:37.013Z,99667.91
2022-12-15T23:24:04.959Z,99673.53
2022-12-15T23:26:33.003Z,99665.94
2022-12-15T23:29:00.691Z,99660.06
2022-12-15T23:31:30.253Z,99665.88
2022-12-15T23:33:58.204Z,99674.06
2022-12-15T23:36:25.995Z,99671.03
2022-12-15T23:38:56.026Z,99660.59
2022-12-15T23:41:23.714Z,99661.84
2022-12-15T23:43:51.477Z,99673.28
2022-12-15T23:46:19.703Z,99666.00
2022-12-15T23:48:48.778Z,99659.31
2022-12-15T23:51:18.612Z,99662.69
2022-12-15T23:53:47.872Z,99661.63
2022-12-15T23:56:17.807Z,99658.41
2022-12-15T23:58:47.246Z,99662.69
